Terminal Aerodrome Forecast
Issued by NWS

Home | Current Version | Previous Version | Text Only | Print | Product List | Glossary On
Versions: 1 2 3 4 5 6 7 8 9 10 11 12 13
147
FTUS46 KSGX 280304 AAA
TAFTRM
TAF AMD
KTRM 280304Z 2803/2824 35012KT P6SM SKC
     FM280900 VRB05KT P6SM SKC
     FM281900 13008KT P6SM SCT200=

USA.gov is the U.S. government's official web portal to all federal, state and local government web resources and services.